createdAt,value
2022-08-12T00:02:21.326Z,22.70
2022-08-12T00:05:11.627Z,22.70
2022-08-12T00:08:04.416Z,22.60
2022-08-12T00:10:51.572Z,22.60
2022-08-12T00:13:40.324Z,22.60
2022-08-12T00:16:28.548Z,22.40
2022-08-12T00:19:16.610Z,22.30
2022-08-12T00:22:08.340Z,22.20
2022-08-12T00:24:55.365Z,22.10
2022-08-12T00:27:44.230Z,22.10
2022-08-12T00:30:33.330Z,22.00
2022-08-12T00:33:23.543Z,22.10
2022-08-12T00:36:34.803Z,22.20
2022-08-12T00:39:25.739Z,22.10
2022-08-12T00:42:15.467Z,22.20
2022-08-12T00:44:48.332Z,22.20
2022-08-12T00:47:24.259Z,22.20
2022-08-12T00:49:58.243Z,22.10
2022-08-12T00:52:28.986Z,22.10
2022-08-12T00:55:07.070Z,22.10
2022-08-12T00:57:37.555Z,22.10
2022-08-12T01:00:23.217Z,22.10
2022-08-12T01:02:59.503Z,22.10
2022-08-12T01:05:46.582Z,21.90
2022-08-12T01:08:35.405Z,21.90
2022-08-12T01:11:25.380Z,21.80
2022-08-12T01:13:55.839Z,21.80
2022-08-12T01:16:28.136Z,21.80
2022-08-12T01:19:03.883Z,21.90
2022-08-12T01:21:46.958Z,21.80
2022-08-12T01:25:00.996Z,21.80
2022-08-12T01:27:55.433Z,21.80
2022-08-12T01:30:29.494Z,21.80
2022-08-12T01:33:03.344Z,21.80
2022-08-12T01:36:07.942Z,21.80
2022-08-12T01:38:40.816Z,21.90
2022-08-12T01:41:16.467Z,21.90
2022-08-12T01:43:47.924Z,21.80
2022-08-12T01:47:11.321Z,21.70
2022-08-12T01:49:57.539Z,21.80
2022-08-12T01:52:55.833Z,21.80
2022-08-12T01:55:35.990Z,21.70
2022-08-12T01:58:21.378Z,21.70
2022-08-12T02:01:11.136Z,21.70
2022-08-12T02:04:33.449Z,21.60
2022-08-12T02:08:04.818Z,21.50
2022-08-12T02:10:58.693Z,21.50
2022-08-12T02:14:27.132Z,21.40
2022-08-12T02:17:55.929Z,21.20
2022-08-12T02:20:52.207Z,21.20
2022-08-12T02:23:29.294Z,21.20
2022-08-12T02:26:01.602Z,21.20
2022-08-12T02:31:17.372Z,21.20
2022-08-12T02:36:34.088Z,21.20
2022-08-12T02:39:04.387Z,21.20
2022-08-12T02:41:39.547Z,21.10
2022-08-12T02:44:15.404Z,21.10
2022-08-12T02:46:52.487Z,21.10
2022-08-12T02:49:35.422Z,21.20
2022-08-12T02:52:10.457Z,21.20
2022-08-12T02:54:47.675Z,21.20
2022-08-12T02:57:22.028Z,21.10
2022-08-12T03:00:04.116Z,21.10
2022-08-12T03:02:57.344Z,21.00
2022-08-12T03:05:38.641Z,20.90
2022-08-12T03:11:17.855Z,20.80
2022-08-12T03:13:53.897Z,20.70
2022-08-12T03:16:25.827Z,20.60
2022-08-12T03:18:57.746Z,20.60
2022-08-12T03:21:55.386Z,20.50
2022-08-12T03:24:19.144Z,20.50
2022-08-12T03:26:55.324Z,20.50
2022-08-12T03:29:43.438Z,20.40
2022-08-12T03:32:49.298Z,20.40
2022-08-12T03:35:40.218Z,20.40
2022-08-12T03:38:14.702Z,20.40
2022-08-12T03:41:28.047Z,20.30
2022-08-12T03:44:47.876Z,20.30
2022-08-12T03:48:01.214Z,20.20
2022-08-12T03:50:52.966Z,20.20
2022-08-12T03:53:52.590Z,20.10
2022-08-12T03:56:41.628Z,20.10
2022-08-12T03:59:34.757Z,20.10
2022-08-12T04:02:04.269Z,20.10
2022-08-12T04:04:35.657Z,20.20
2022-08-12T04:07:08.305Z,20.10
2022-08-12T04:09:42.645Z,20.10
2022-08-12T04:12:33.484Z,20.20
2022-08-12T04:15:03.439Z,20.20
2022-08-12T04:17:33.340Z,20.20
2022-08-12T04:20:02.097Z,20.20
2022-08-12T04:22:46.025Z,20.20
2022-08-12T04:25:18.769Z,20.20
2022-08-12T04:27:48.366Z,20.20
2022-08-12T04:30:32.063Z,20.20
2022-08-12T04:33:03.481Z,20.30
2022-08-12T04:35:34.866Z,20.30
2022-08-12T04:38:05.298Z,20.30
2022-08-12T04:40:38.490Z,20.30
2022-08-12T04:44:01.158Z,20.20
2022-08-12T04:46:04.594Z,20.20
2022-08-12T04:48:37.868Z,20.20
2022-08-12T04:51:08.484Z,20.20
2022-08-12T04:53:38.513Z,20.30
2022-08-12T04:56:08.841Z,20.30
2022-08-12T04:58:36.757Z,20.40
2022-08-12T05:01:06.440Z,20.50
2022-08-12T05:03:46.025Z,20.60
2022-08-12T05:06:26.766Z,20.70
2022-08-12T05:08:56.580Z,20.60
2022-08-12T05:11:27.610Z,20.60
2022-08-12T05:14:08.687Z,20.60
2022-08-12T05:16:37.543Z,20.60
2022-08-12T05:19:12.851Z,20.60
2022-08-12T05:21:46.983Z,20.60
2022-08-12T05:24:18.582Z,20.60
2022-08-12T05:26:50.026Z,20.60
2022-08-12T05:30:06.301Z,20.60
2022-08-12T05:32:13.907Z,20.70
2022-08-12T05:34:45.308Z,20.70
2022-08-12T05:37:16.157Z,20.80
2022-08-12T05:39:45.643Z,20.80
2022-08-12T05:42:17.185Z,20.80
2022-08-12T05:44:47.692Z,20.90
2022-08-12T05:47:18.373Z,20.90
2022-08-12T05:49:49.879Z,20.90
2022-08-12T05:52:20.877Z,20.90
2022-08-12T05:54:57.430Z,21.00
2022-08-12T05:57:27.858Z,20.80
2022-08-12T05:59:57.859Z,20.60
2022-08-12T06:02:26.889Z,20.50
2022-08-12T06:05:08.986Z,20.60
2022-08-12T06:08:00.592Z,20.70
2022-08-12T06:10:32.308Z,20.80
2022-08-12T06:13:04.503Z,20.80
2022-08-12T06:15:43.086Z,20.90
2022-08-12T06:18:16.080Z,21.00
2022-08-12T06:20:52.611Z,21.10
2022-08-12T06:23:22.656Z,21.20
2022-08-12T06:25:53.961Z,21.20
2022-08-12T06:28:24.238Z,21.30
2022-08-12T06:31:22.611Z,21.40
2022-08-12T06:33:57.678Z,21.40
2022-08-12T06:36:33.414Z,21.50
2022-08-12T06:39:03.450Z,21.60
2022-08-12T06:42:05.118Z,21.60
2022-08-12T06:44:42.730Z,21.70
2022-08-12T06:47:14.120Z,21.70
2022-08-12T06:49:43.821Z,21.60
2022-08-12T06:52:13.809Z,21.60
2022-08-12T06:54:48.573Z,21.40
2022-08-12T06:58:06.487Z,21.30
2022-08-12T07:00:11.660Z,21.30
2022-08-12T07:02:44.249Z,21.40
2022-08-12T07:05:13.603Z,21.50
2022-08-12T07:07:42.025Z,21.60
2022-08-12T07:10:15.320Z,21.70
2022-08-12T07:12:42.688Z,21.80
2022-08-12T07:15:14.509Z,21.90
2022-08-12T07:17:43.950Z,21.90
2022-08-12T07:23:04.559Z,22.20
2022-08-12T07:25:40.901Z,22.20
2022-08-12T07:28:16.407Z,22.30
2022-08-12T07:30:59.561Z,22.40
2022-08-12T07:33:31.819Z,22.30
2022-08-12T07:36:05.374Z,22.50
2022-08-12T07:38:36.122Z,22.50
2022-08-12T07:41:20.117Z,22.60
2022-08-12T07:44:07.069Z,22.80
2022-08-12T07:46:39.010Z,22.80
2022-08-12T07:49:16.147Z,22.90
2022-08-12T07:51:47.049Z,22.90
2022-08-12T07:54:14.667Z,23.00
2022-08-12T07:56:44.860Z,23.10
2022-08-12T07:59:17.167Z,23.10
2022-08-12T08:01:45.539Z,23.10
2022-08-12T08:04:37.001Z,23.20
2022-08-12T08:07:11.033Z,23.30
2022-08-12T08:09:41.732Z,23.30
2022-08-12T08:12:31.951Z,23.30
2022-08-12T08:15:03.494Z,23.30
2022-08-12T08:17:32.530Z,23.40
2022-08-12T08:20:03.788Z,23.50
2022-08-12T08:22:43.385Z,23.40
2022-08-12T08:25:35.206Z,23.40
2022-08-12T08:28:09.402Z,23.40
2022-08-12T08:30:43.518Z,23.50
2022-08-12T08:33:22.611Z,23.50
2022-08-12T08:35:54.284Z,23.60
2022-08-12T08:38:33.343Z,23.70
2022-08-12T08:42:16.941Z,23.70
2022-08-12T08:44:15.426Z,23.80
2022-08-12T08:46:47.845Z,23.90
2022-08-12T08:49:21.757Z,23.90
2022-08-12T08:51:53.998Z,24.00
2022-08-12T08:54:27.217Z,24.00
2022-08-12T08:56:57.133Z,24.10
2022-08-12T08:59:25.616Z,24.10
2022-08-12T09:01:55.233Z,24.20
2022-08-12T09:05:13.858Z,24.20
2022-08-12T09:07:51.891Z,24.30
2022-08-12T09:10:23.306Z,24.40
2022-08-12T09:16:12.418Z,24.60
2022-08-12T09:18:46.494Z,24.60
2022-08-12T09:21:18.239Z,24.70
2022-08-12T09:24:00.887Z,24.70
2022-08-12T09:26:46.211Z,24.80
2022-08-12T09:30:11.291Z,24.90
2022-08-12T09:32:31.336Z,24.90
2022-08-12T09:35:18.454Z,25.00
2022-08-12T09:38:25.595Z,25.10
2022-08-12T09:42:08.517Z,25.10
2022-08-12T09:44:38.246Z,25.10
2022-08-12T09:47:03.053Z,25.10
2022-08-12T09:49:42.825Z,25.30
2022-08-12T09:52:18.600Z,25.30
2022-08-12T09:54:53.887Z,25.30
2022-08-12T09:58:07.854Z,25.40
2022-08-12T10:00:29.209Z,25.40
2022-08-12T10:03:31.796Z,25.50
2022-08-12T10:06:27.409Z,25.50
2022-08-12T10:08:54.176Z,25.60
2022-08-12T10:12:11.935Z,25.60
2022-08-12T10:14:38.405Z,25.60
2022-08-12T10:17:12.427Z,25.80
2022-08-12T10:19:51.576Z,25.80
2022-08-12T10:22:39.028Z,25.90
2022-08-12T10:26:35.749Z,25.90
2022-08-12T10:28:42.092Z,25.90
2022-08-12T10:31:59.476Z,26.00
2022-08-12T10:34:27.339Z,26.10
2022-08-12T10:37:23.404Z,26.10
2022-08-12T10:40:01.131Z,26.10
2022-08-12T10:43:00.566Z,26.20
2022-08-12T10:45:38.038Z,26.20
2022-08-12T10:48:21.421Z,26.30
2022-08-12T10:51:03.399Z,26.40
2022-08-12T10:54:00.831Z,26.50
2022-08-12T10:56:39.775Z,26.50
2022-08-12T10:59:13.426Z,26.60
2022-08-12T11:04:14.699Z,26.60
2022-08-12T11:04:49.042Z,26.70
2022-08-12T11:08:36.510Z,26.80
2022-08-12T11:13:00.390Z,26.90
2022-08-12T11:16:03.023Z,27.10
2022-08-12T11:18:20.006Z,27.10
2022-08-12T11:20:52.968Z,27.20
2022-08-12T11:23:37.178Z,27.30
2022-08-12T11:26:09.461Z,27.40
2022-08-12T11:28:40.071Z,27.50
2022-08-12T11:31:14.434Z,27.60
2022-08-12T11:34:04.503Z,27.70
2022-08-12T11:36:39.168Z,27.80
2022-08-12T11:39:12.521Z,27.90
2022-08-12T11:41:43.035Z,28.00
2022-08-12T11:44:35.851Z,27.90
2022-08-12T11:47:09.400Z,27.90
2022-08-12T11:49:40.339Z,27.90
2022-08-12T11:52:17.371Z,27.90
2022-08-12T11:55:05.628Z,28.00
2022-08-12T11:58:09.538Z,28.10
2022-08-12T12:03:20.029Z,28.30
2022-08-12T12:05:51.174Z,28.30
2022-08-12T12:08:37.289Z,28.50
2022-08-12T12:11:12.463Z,28.70
2022-08-12T12:14:08.581Z,29.00
2022-08-12T12:16:33.554Z,29.30
2022-08-12T12:21:47.323Z,30.00
2022-08-12T12:24:21.736Z,30.00
2022-08-12T12:27:00.635Z,30.00
2022-08-12T12:30:19.273Z,29.90
2022-08-12T12:32:28.899Z,30.00
2022-08-12T12:35:14.099Z,30.10
2022-08-12T12:38:12.512Z,30.00
2022-08-12T12:40:50.275Z,30.20
2022-08-12T12:43:28.756Z,30.30
2022-08-12T12:46:11.522Z,30.40
2022-08-12T12:48:44.509Z,30.50
2022-08-12T12:51:51.753Z,30.50
2022-08-12T12:54:18.866Z,30.60
2022-08-12T12:56:54.144Z,30.70
2022-08-12T12:59:55.398Z,30.90
2022-08-12T13:02:42.274Z,31.20
2022-08-12T13:05:13.943Z,31.40
2022-08-12T13:07:49.032Z,31.20
2022-08-12T13:10:30.621Z,31.00
2022-08-12T13:13:09.605Z,30.90
2022-08-12T13:15:59.217Z,31.10
2022-08-12T13:18:40.039Z,31.50
2022-08-12T13:21:15.751Z,33.10
2022-08-12T13:24:10.254Z,34.90
2022-08-12T13:26:41.134Z,36.00
2022-08-12T13:29:11.568Z,35.30
2022-08-12T13:32:19.412Z,34.10
2022-08-12T13:34:40.620Z,33.30
2022-08-12T13:37:16.635Z,32.20
2022-08-12T13:39:46.241Z,31.80
2022-08-12T13:42:16.893Z,31.40
2022-08-12T13:44:47.397Z,30.90
2022-08-12T13:47:25.075Z,31.10
2022-08-12T13:49:56.162Z,31.70
2022-08-12T13:52:31.212Z,32.20
2022-08-12T13:55:00.133Z,33.30
2022-08-12T13:57:47.240Z,33.90
2022-08-12T14:00:20.480Z,33.90
2022-08-12T14:03:05.927Z,33.30
2022-08-12T14:05:39.197Z,32.50
2022-08-12T14:08:21.325Z,32.20
2022-08-12T14:10:57.127Z,32.20
2022-08-12T14:14:03.169Z,32.10
2022-08-12T14:16:37.809Z,31.90
2022-08-12T14:19:21.942Z,31.60
2022-08-12T14:22:01.139Z,31.60
2022-08-12T14:24:40.389Z,32.00
2022-08-12T14:27:12.210Z,32.10
2022-08-12T14:30:05.107Z,32.40
2022-08-12T14:32:45.372Z,32.50
2022-08-12T14:35:16.920Z,32.20
2022-08-12T14:37:57.062Z,31.90
2022-08-12T14:40:31.395Z,31.70
2022-08-12T14:43:02.160Z,31.90
2022-08-12T14:45:47.063Z,32.50
2022-08-12T14:48:24.394Z,33.10
2022-08-12T14:52:07.831Z,33.50
2022-08-12T14:56:58.010Z,32.80
2022-08-12T14:59:57.839Z,31.90
2022-08-12T15:02:32.446Z,31.60
2022-08-12T15:05:08.244Z,31.40
2022-08-12T15:07:48.903Z,31.30
2022-08-12T15:10:31.742Z,31.30
2022-08-12T15:13:26.093Z,31.10
2022-08-12T15:15:56.986Z,30.90
2022-08-12T15:18:27.997Z,30.70
2022-08-12T15:21:11.128Z,30.80
2022-08-12T15:23:45.479Z,30.90
2022-08-12T15:26:32.803Z,31.20
2022-08-12T15:29:10.459Z,31.50
2022-08-12T15:32:00.154Z,31.70
2022-08-12T15:34:36.595Z,31.90
2022-08-12T15:37:09.267Z,32.30
2022-08-12T15:39:40.811Z,32.30
2022-08-12T15:42:34.178Z,32.20
2022-08-12T15:45:08.717Z,31.90
2022-08-12T15:47:49.613Z,31.90
2022-08-12T15:50:26.410Z,31.60
2022-08-12T15:52:59.285Z,31.50
2022-08-12T15:55:45.826Z,31.20
2022-08-12T15:58:17.913Z,31.10
2022-08-12T16:00:53.551Z,31.10
2022-08-12T16:04:00.083Z,31.10
2022-08-12T16:07:00.675Z,31.10
2022-08-12T16:09:56.521Z,30.80
2022-08-12T16:12:12.032Z,30.60
2022-08-12T16:14:43.214Z,30.40
2022-08-12T16:17:16.995Z,30.30
2022-08-12T16:20:05.923Z,30.10
2022-08-12T16:22:36.529Z,30.00
2022-08-12T16:25:12.391Z,29.90
2022-08-12T16:27:52.418Z,29.80
2022-08-12T16:30:31.319Z,29.70
2022-08-12T16:33:09.586Z,29.70
2022-08-12T16:35:55.563Z,29.60
2022-08-12T16:38:28.985Z,29.60
2022-08-12T16:40:59.336Z,29.60
2022-08-12T16:43:50.439Z,29.50
2022-08-12T16:46:33.566Z,29.40
2022-08-12T16:49:13.528Z,29.40
2022-08-12T16:51:47.689Z,29.20
2022-08-12T16:54:21.085Z,29.10
2022-08-12T16:56:58.541Z,29.10
2022-08-12T16:59:52.728Z,29.10
2022-08-12T17:02:31.240Z,29.00
2022-08-12T17:05:10.411Z,29.00
2022-08-12T17:07:49.449Z,28.90
2022-08-12T17:10:35.928Z,28.80
2022-08-12T17:13:10.686Z,28.70
2022-08-12T17:16:04.612Z,28.60
2022-08-12T17:18:43.373Z,28.60
2022-08-12T17:21:40.114Z,28.50
2022-08-12T17:24:37.284Z,28.50
2022-08-12T17:27:16.246Z,28.40
2022-08-12T17:30:02.319Z,28.40
2022-08-12T17:32:37.997Z,28.40
2022-08-12T17:35:30.049Z,28.30
2022-08-12T17:38:15.613Z,28.30
2022-08-12T17:40:51.141Z,28.20
2022-08-12T17:43:57.797Z,28.20
2022-08-12T17:46:33.320Z,28.10
2022-08-12T17:49:06.839Z,28.10
2022-08-12T17:52:02.547Z,28.00
2022-08-12T17:54:40.550Z,28.00
2022-08-12T17:57:17.177Z,27.90
2022-08-12T17:59:49.426Z,27.90
2022-08-12T18:02:25.522Z,27.80
2022-08-12T18:05:05.262Z,27.80
2022-08-12T18:07:41.083Z,27.70
2022-08-12T18:12:54.540Z,27.60
2022-08-12T18:15:26.590Z,27.60
2022-08-12T18:18:17.362Z,27.60
2022-08-12T18:20:52.833Z,27.60
2022-08-12T18:23:23.716Z,27.60
2022-08-12T18:26:17.895Z,27.60
2022-08-12T18:28:50.631Z,27.50
2022-08-12T18:31:44.737Z,27.50
2022-08-12T18:37:41.193Z,27.50
2022-08-12T18:40:24.423Z,27.40
2022-08-12T18:42:59.355Z,27.50
2022-08-12T18:45:46.586Z,27.50
2022-08-12T18:48:17.713Z,27.40
2022-08-12T18:50:50.130Z,27.40
2022-08-12T18:54:06.120Z,27.40
2022-08-12T18:56:33.736Z,27.30
2022-08-12T18:59:05.944Z,27.40
2022-08-12T19:02:22.258Z,27.30
2022-08-12T19:04:32.465Z,27.30
2022-08-12T19:07:04.292Z,27.30
2022-08-12T19:09:57.595Z,27.20
2022-08-12T19:12:57.025Z,27.10
2022-08-12T19:15:34.477Z,27.10
2022-08-12T19:18:13.917Z,27.00
2022-08-12T19:20:47.821Z,27.00
2022-08-12T19:23:16.425Z,27.00
2022-08-12T19:26:01.926Z,26.90
2022-08-12T19:28:36.233Z,26.90
2022-08-12T19:31:58.209Z,26.80
2022-08-12T19:38:04.173Z,26.80
2022-08-12T19:40:38.970Z,26.70
2022-08-12T19:43:20.206Z,26.70
2022-08-12T19:45:56.765Z,26.70
2022-08-12T19:48:40.180Z,26.70
2022-08-12T19:51:22.769Z,26.70
2022-08-12T19:53:58.613Z,26.70
2022-08-12T19:56:35.289Z,26.70
2022-08-12T19:59:23.045Z,26.70
2022-08-12T20:02:02.636Z,26.70
2022-08-12T20:04:40.532Z,26.70
2022-08-12T20:07:24.044Z,26.60
2022-08-12T20:09:54.182Z,26.60
2022-08-12T20:12:48.789Z,26.60
2022-08-12T20:15:22.817Z,26.60
2022-08-12T20:17:57.350Z,26.60
2022-08-12T20:20:31.949Z,26.60
2022-08-12T20:23:08.749Z,26.60
2022-08-12T20:25:51.831Z,26.60
2022-08-12T20:28:21.805Z,26.60
2022-08-12T20:31:00.827Z,26.60
2022-08-12T20:33:32.837Z,26.70
2022-08-12T20:36:42.457Z,26.60
2022-08-12T20:39:35.884Z,26.60
2022-08-12T20:42:24.649Z,26.60
2022-08-12T20:45:01.338Z,26.60
2022-08-12T20:47:46.392Z,26.50
2022-08-12T20:50:20.969Z,26.50
2022-08-12T20:52:51.904Z,26.50
2022-08-12T20:55:23.229Z,26.40
2022-08-12T20:58:19.094Z,26.40
2022-08-12T21:00:48.566Z,26.30
2022-08-12T21:03:37.001Z,26.30
2022-08-12T21:06:43.380Z,26.30
2022-08-12T21:09:18.431Z,26.30
2022-08-12T21:11:54.142Z,26.30
2022-08-12T21:14:39.693Z,26.30
2022-08-12T21:17:34.026Z,26.30
2022-08-12T21:20:15.713Z,26.30
2022-08-12T21:22:53.860Z,26.30
2022-08-12T21:25:22.501Z,26.30
2022-08-12T21:27:59.476Z,26.30
2022-08-12T21:30:34.215Z,26.30
2022-08-12T21:33:14.857Z,26.30
2022-08-12T21:35:45.907Z,26.30
2022-08-12T21:38:22.537Z,26.20
2022-08-12T21:40:56.083Z,26.20
2022-08-12T21:43:44.751Z,26.20
2022-08-12T21:46:34.485Z,26.20
2022-08-12T21:49:05.484Z,26.20
2022-08-12T21:51:49.939Z,26.20
2022-08-12T21:54:31.867Z,26.20
2022-08-12T21:57:04.701Z,26.20
2022-08-12T21:59:45.058Z,26.20
2022-08-12T22:02:36.035Z,26.20
2022-08-12T22:05:28.977Z,26.20
2022-08-12T22:07:58.960Z,26.20
2022-08-12T22:10:29.463Z,26.20
2022-08-12T22:13:00.997Z,26.20
2022-08-12T22:15:31.441Z,26.20
2022-08-12T22:18:13.957Z,26.20
2022-08-12T22:20:49.528Z,26.20
2022-08-12T22:23:51.273Z,26.10
2022-08-12T22:26:29.413Z,26.10
2022-08-12T22:29:27.988Z,26.10
2022-08-12T22:31:58.470Z,26.10
2022-08-12T22:34:33.339Z,26.00
2022-08-12T22:37:03.629Z,26.00
2022-08-12T22:39:33.581Z,26.00
2022-08-12T22:42:30.575Z,26.00
2022-08-12T22:45:23.394Z,26.00
2022-08-12T22:47:54.872Z,25.90
2022-08-12T22:50:28.881Z,25.90
2022-08-12T22:53:16.979Z,25.80
2022-08-12T22:55:59.922Z,25.60
2022-08-12T22:58:40.423Z,25.40
2022-08-12T23:01:13.844Z,25.40
2022-08-12T23:04:07.890Z,25.20
2022-08-12T23:06:43.262Z,24.70
2022-08-12T23:09:13.589Z,24.30
2022-08-12T23:11:50.804Z,24.10
2022-08-12T23:14:21.005Z,24.10
2022-08-12T23:16:58.812Z,24.20
2022-08-12T23:19:38.146Z,24.20
2022-08-12T23:24:55.869Z,24.40
2022-08-12T23:27:52.193Z,24.40
2022-08-12T23:30:31.101Z,24.40
2022-08-12T23:33:20.045Z,24.40
2022-08-12T23:36:03.481Z,24.40
2022-08-12T23:38:42.223Z,24.40
2022-08-12T23:41:24.000Z,24.40
2022-08-12T23:43:54.328Z,24.40
2022-08-12T23:46:27.205Z,24.40
2022-08-12T23:49:02.150Z,24.30
2022-08-12T23:51:48.149Z,24.30
2022-08-12T23:54:58.001Z,24.20
2022-08-12T23:58:17.734Z,24.20
